createdAt,value
2023-03-24T00:00:26.313Z,12.30
2023-03-24T00:02:53.242Z,12.30
2023-03-24T00:05:22.185Z,12.20
2023-03-24T00:07:54.329Z,12.20
2023-03-24T00:10:23.045Z,12.20
2023-03-24T00:12:51.358Z,12.30
2023-03-24T00:15:21.796Z,12.20
2023-03-24T00:17:52.671Z,12.20
2023-03-24T00:20:22.252Z,12.10
2023-03-24T00:22:56.592Z,12.10
2023-03-24T00:25:29.430Z,12.10
2023-03-24T00:27:57.924Z,12.10
2023-03-24T00:30:26.112Z,12.10
2023-03-24T00:32:53.788Z,12.00
2023-03-24T00:35:20.972Z,12.10
2023-03-24T00:37:49.981Z,12.00
2023-03-24T00:40:19.181Z,12.10
2023-03-24T00:42:47.713Z,12.00
2023-03-24T00:45:20.645Z,12.10
2023-03-24T00:47:49.983Z,12.10
2023-03-24T00:50:20.603Z,12.10
2023-03-24T00:52:49.109Z,12.10
2023-03-24T00:55:17.057Z,12.10
2023-03-24T00:57:52.030Z,12.10
2023-03-24T01:00:24.297Z,12.10
2023-03-24T01:02:54.892Z,12.10
2023-03-24T01:05:28.338Z,12.10
2023-03-24T01:08:03.612Z,12.10
2023-03-24T01:10:34.958Z,12.10
2023-03-24T01:13:02.733Z,12.00
2023-03-24T01:15:33.472Z,12.00
2023-03-24T01:18:02.457Z,12.00
2023-03-24T01:20:35.501Z,12.00
2023-03-24T01:23:07.865Z,12.00
2023-03-24T01:25:39.927Z,12.00
2023-03-24T01:28:06.953Z,12.00
2023-03-24T01:30:34.421Z,12.00
2023-03-24T01:33:01.641Z,12.00
2023-03-24T01:35:29.579Z,12.00
2023-03-24T01:37:57.566Z,12.10
2023-03-24T01:40:33.780Z,12.10
2023-03-24T01:43:01.241Z,12.10
2023-03-24T01:45:44.523Z,12.20
2023-03-24T01:48:38.597Z,12.10
2023-03-24T01:51:19.603Z,12.10
2023-03-24T01:53:59.993Z,12.20
2023-03-24T01:56:28.516Z,12.10
2023-03-24T01:59:13.666Z,12.10
2023-03-24T02:01:40.648Z,12.10
2023-03-24T02:04:08.901Z,12.10
2023-03-24T02:06:44.062Z,12.10
2023-03-24T02:09:12.517Z,12.10
2023-03-24T02:11:40.770Z,12.10
2023-03-24T02:14:08.541Z,12.10
2023-03-24T02:17:00.174Z,12.10
2023-03-24T02:19:38.613Z,12.00
2023-03-24T02:22:29.675Z,12.10
2023-03-24T02:25:18.163Z,12.00
2023-03-24T02:28:14.488Z,12.00
2023-03-24T02:30:50.320Z,12.00
2023-03-24T02:33:19.923Z,12.00
2023-03-24T02:36:26.269Z,12.00
2023-03-24T02:39:21.158Z,12.00
2023-03-24T02:42:44.666Z,12.00
2023-03-24T02:45:22.967Z,12.00
2023-03-24T02:48:16.141Z,12.00
2023-03-24T02:50:56.640Z,12.00
2023-03-24T02:53:54.591Z,12.10
2023-03-24T02:56:33.521Z,12.10
2023-03-24T02:59:09.984Z,12.10
2023-03-24T03:02:07.933Z,12.20
2023-03-24T03:04:49.873Z,12.20
2023-03-24T03:07:22.101Z,12.30
2023-03-24T03:10:16.238Z,12.40
2023-03-24T03:12:48.605Z,12.40
2023-03-24T03:15:22.033Z,12.50
2023-03-24T03:17:59.144Z,12.60
2023-03-24T03:20:31.064Z,12.70
2023-03-24T03:23:15.219Z,12.70
2023-03-24T03:25:50.356Z,12.70
2023-03-24T03:28:22.265Z,12.80
2023-03-24T03:30:55.923Z,12.80
2023-03-24T03:33:26.712Z,13.00
2023-03-24T03:36:20.769Z,13.20
2023-03-24T03:39:02.688Z,13.30
2023-03-24T03:41:29.653Z,13.30
2023-03-24T03:43:56.706Z,13.30
2023-03-24T03:46:23.874Z,13.40
2023-03-24T03:48:51.188Z,13.40
2023-03-24T03:51:18.505Z,13.50
2023-03-24T03:53:52.591Z,13.60
2023-03-24T03:56:22.886Z,13.60
2023-03-24T03:58:50.260Z,13.60
2023-03-24T04:01:21.165Z,13.60
2023-03-24T04:04:12.269Z,13.50
2023-03-24T04:07:20.175Z,13.60
2023-03-24T04:10:12.115Z,13.60
2023-03-24T04:12:47.961Z,13.40
2023-03-24T04:15:23.839Z,13.20
2023-03-24T04:18:18.707Z,13.20
2023-03-24T04:20:56.853Z,13.10
2023-03-24T04:23:26.377Z,13.10
2023-03-24T04:26:17.678Z,13.10
2023-03-24T04:29:09.916Z,13.10
2023-03-24T04:31:53.340Z,13.10
2023-03-24T04:34:21.559Z,13.10
2023-03-24T04:37:02.876Z,13.10
2023-03-24T04:39:31.989Z,13.00
2023-03-24T04:42:06.292Z,13.00
2023-03-24T04:44:34.199Z,13.00
2023-03-24T04:47:03.062Z,13.00
2023-03-24T04:49:30.029Z,13.00
2023-03-24T04:51:56.826Z,13.00
2023-03-24T04:54:23.898Z,12.90
2023-03-24T04:56:53.526Z,12.90
2023-03-24T04:59:21.334Z,12.90
2023-03-24T05:01:50.789Z,12.90
2023-03-24T05:04:26.134Z,12.80
2023-03-24T05:06:53.064Z,12.80
2023-03-24T05:09:22.383Z,12.70
2023-03-24T05:11:49.520Z,12.70
2023-03-24T05:14:16.965Z,12.60
2023-03-24T05:16:44.163Z,12.60
2023-03-24T05:19:11.676Z,12.50
2023-03-24T05:21:38.716Z,12.40
2023-03-24T05:24:06.831Z,12.30
2023-03-24T05:26:35.536Z,12.30
2023-03-24T05:29:02.400Z,12.20
2023-03-24T05:31:29.180Z,12.10
2023-03-24T05:33:56.604Z,12.10
2023-03-24T05:36:23.542Z,12.00
2023-03-24T05:38:50.454Z,11.90
2023-03-24T05:41:17.261Z,11.90
2023-03-24T05:43:44.067Z,11.80
2023-03-24T05:46:11.042Z,11.80
2023-03-24T05:48:37.854Z,11.70
2023-03-24T05:51:07.948Z,11.60
2023-03-24T05:53:37.735Z,11.50
2023-03-24T05:56:06.127Z,11.50
2023-03-24T05:58:34.686Z,11.40
2023-03-24T06:01:07.688Z,11.30
2023-03-24T06:03:34.928Z,11.30
2023-03-24T06:06:01.843Z,11.20
2023-03-24T06:08:28.637Z,11.20
2023-03-24T06:11:00.787Z,11.20
2023-03-24T06:13:27.618Z,11.20
2023-03-24T06:15:54.765Z,11.10
2023-03-24T06:18:24.162Z,11.10
2023-03-24T06:20:50.960Z,11.10
2023-03-24T06:23:18.029Z,11.10
2023-03-24T06:25:45.165Z,11.10
2023-03-24T06:28:12.337Z,11.10
2023-03-24T06:30:40.542Z,11.10
2023-03-24T06:33:08.474Z,11.10
2023-03-24T06:35:38.513Z,11.10
2023-03-24T06:38:08.276Z,11.10
2023-03-24T06:40:37.331Z,11.10
2023-03-24T06:43:04.419Z,11.10
2023-03-24T06:45:31.378Z,11.10
2023-03-24T06:47:58.341Z,11.10
2023-03-24T06:50:27.001Z,11.10
2023-03-24T06:52:54.083Z,11.10
2023-03-24T06:55:22.231Z,11.10
2023-03-24T06:57:49.092Z,11.10
2023-03-24T07:00:16.202Z,11.10
2023-03-24T07:02:43.114Z,11.10
2023-03-24T07:05:11.097Z,11.10
2023-03-24T07:08:16.922Z,11.10
2023-03-24T07:10:25.118Z,11.10
2023-03-24T07:12:51.907Z,11.10
2023-03-24T07:15:18.697Z,11.10
2023-03-24T07:17:45.767Z,11.10
2023-03-24T07:20:12.708Z,11.20
2023-03-24T07:22:39.525Z,11.10
2023-03-24T07:25:07.211Z,11.20
2023-03-24T07:27:35.425Z,11.20
2023-03-24T07:30:02.730Z,11.30
2023-03-24T07:32:37.449Z,11.30
2023-03-24T07:35:05.583Z,11.30
2023-03-24T07:37:32.371Z,11.30
2023-03-24T07:39:59.128Z,11.30
2023-03-24T07:42:25.934Z,11.30
2023-03-24T07:44:52.752Z,11.30
2023-03-24T07:47:19.557Z,11.40
2023-03-24T07:49:46.847Z,11.40
2023-03-24T07:52:13.758Z,11.40
2023-03-24T07:54:40.800Z,11.50
2023-03-24T07:57:10.434Z,11.50
2023-03-24T07:59:38.027Z,11.60
2023-03-24T08:02:05.480Z,11.60
2023-03-24T08:04:33.444Z,11.70
2023-03-24T08:07:00.607Z,11.70
2023-03-24T08:09:27.843Z,11.90
2023-03-24T08:11:54.709Z,11.80
2023-03-24T08:14:21.874Z,11.90
2023-03-24T08:16:49.149Z,11.90
2023-03-24T08:19:16.142Z,11.80
2023-03-24T08:21:42.984Z,11.80
2023-03-24T08:24:09.898Z,11.90
2023-03-24T08:26:36.747Z,11.90
2023-03-24T08:29:03.985Z,11.80
2023-03-24T08:31:38.076Z,11.80
2023-03-24T08:34:07.905Z,11.70
2023-03-24T08:36:37.727Z,11.80
2023-03-24T08:39:07.967Z,11.80
2023-03-24T08:41:35.875Z,11.80
2023-03-24T08:44:06.709Z,11.80
2023-03-24T08:46:36.706Z,11.90
2023-03-24T08:49:05.826Z,11.90
2023-03-24T08:51:33.199Z,11.80
2023-03-24T08:54:01.484Z,11.90
2023-03-24T08:56:28.398Z,11.90
2023-03-24T08:58:55.273Z,12.00
2023-03-24T09:01:22.991Z,12.00
2023-03-24T09:03:50.097Z,12.20
2023-03-24T09:06:17.746Z,12.30
2023-03-24T09:08:44.573Z,12.30
2023-03-24T09:11:20.368Z,12.40
2023-03-24T09:13:47.718Z,12.40
2023-03-24T09:16:15.649Z,12.40
2023-03-24T09:18:42.863Z,12.50
2023-03-24T09:21:09.765Z,12.50
2023-03-24T09:23:36.794Z,12.60
2023-03-24T09:26:06.448Z,12.60
2023-03-24T09:28:33.936Z,12.60
2023-03-24T09:31:03.164Z,12.60
2023-03-24T09:33:31.156Z,12.60
2023-03-24T09:36:00.433Z,12.80
2023-03-24T09:38:28.437Z,12.80
2023-03-24T09:41:03.205Z,12.80
2023-03-24T09:43:52.336Z,12.80
2023-03-24T09:46:43.180Z,12.90
2023-03-24T09:49:16.715Z,12.90
2023-03-24T09:51:45.640Z,12.90
2023-03-24T09:54:22.679Z,13.00
2023-03-24T09:56:51.700Z,13.00
2023-03-24T09:59:26.271Z,13.00
2023-03-24T10:01:53.132Z,13.00
2023-03-24T10:04:24.352Z,13.00
2023-03-24T10:07:19.406Z,13.00
2023-03-24T10:09:53.475Z,12.90
2023-03-24T10:12:33.460Z,12.80
2023-03-24T10:15:12.566Z,13.00
2023-03-24T10:17:48.656Z,12.90
2023-03-24T10:20:32.730Z,13.00
2023-03-24T10:23:24.233Z,13.20
2023-03-24T10:26:12.862Z,13.40
2023-03-24T10:29:06.121Z,13.50
2023-03-24T10:31:35.905Z,13.60
2023-03-24T10:34:03.171Z,13.70
2023-03-24T10:36:30.965Z,13.60
2023-03-24T10:39:00.117Z,13.60
2023-03-24T10:41:32.673Z,13.50
2023-03-24T10:44:02.295Z,13.30
2023-03-24T10:46:32.086Z,13.40
2023-03-24T10:49:28.360Z,13.40
2023-03-24T10:52:03.672Z,13.40
2023-03-24T10:54:31.889Z,13.30
2023-03-24T10:57:02.593Z,13.30
2023-03-24T10:59:59.304Z,13.40
2023-03-24T11:02:37.921Z,13.40
2023-03-24T11:05:15.792Z,13.50
2023-03-24T11:07:46.584Z,13.40
2023-03-24T11:10:18.868Z,13.40
2023-03-24T11:12:48.910Z,13.50
2023-03-24T11:15:22.368Z,13.80
2023-03-24T11:17:56.864Z,13.60
2023-03-24T11:20:37.488Z,13.90
2023-03-24T11:23:44.668Z,13.80
2023-03-24T23:43:02.347Z,11.80
2023-03-24T23:45:29.210Z,10.10
2023-03-24T23:47:56.614Z,10.10
2023-03-24T23:50:23.603Z,10.10
2023-03-24T23:52:50.400Z,10.00
2023-03-24T23:55:18.202Z,10.00
2023-03-24T23:57:46.437Z,9.90
